首页
METAR-TAF:

METAR-TAF

机场 :

布什爾機場

布什尔, 伊朗

纬度: 28-59N, 经度: 050-50E, 海拔: 19米

当前天气观测

该预报发布于45分钟前的19:00 UTC
静风
温度 20°C
湿度 49%
气压 1018 hPa
能見度: 8000

METAR: OIBB 181900Z 00000KT 8000 NSC 20/09 Q1017 A3005

时间: 23:15 (19:45 UTC)


TAF: 丢失

超过4000个机场的气象观测和天气预报(METAR&TAF报告)。

可查询的气象台以黄色和红色小点在地图上表示。

将鼠标移到小点上方,可查看气象台名称。

然后点击查看天气观测和预报。

如需切换地图:点击带黑十字的绿色按钮放大地图;点击带横线的绿色按钮缩小地图;或者点击绿色箭头查看邻近地区的地图。


METAR-TAF: